Time;durP1;ratioP1;P1;durP2;ratioP2;P2;SDS_P1;SDS_P2;PMS_P1;PMS_P2;Temp;Humidity;BMP_temperature;BMP_pressure;BME280_temperature;BME280_humidity;BME280_pressure;Samples;Min_cycle;Max_cycle;Signal;HPM_P1;HPM_P2
2021/10/22 00:00:22;;;;;;;20.13;15.55;;;;;;;6.78;79.90;96606.28;5095351;28;20026;-62
2021/10/22 00:02:47;;;;;;;22.67;18.33;;;;;;;6.80;79.34;96601.03;5095259;28;20028;-63
2021/10/22 00:05:13;;;;;;;25.20;18.10;;;;;;;6.78;80.13;96600.22;5094443;28;20272;-60
2021/10/22 00:07:40;;;;;;;23.27;19.13;;;;;;;6.68;81.08;96605.63;5095214;28;20134;-63
2021/10/22 00:10:07;;;;;;;26.50;20.13;;;;;;;6.65;82.40;96610.03;5095214;28;20052;-62
2021/10/22 00:12:33;;;;;;;28.58;18.80;;;;;;;6.67;81.83;96603.06;5095049;28;20016;-61
2021/10/22 00:14:58;;;;;;;26.48;18.95;;;;;;;6.70;81.51;96610.78;5095016;28;20030;-61
2021/10/22 00:17:24;;;;;;;28.33;18.02;;;;;;;6.69;81.31;96614.28;5095033;28;20043;-62
2021/10/22 00:19:49;;;;;;;22.63;17.65;;;;;;;6.68;81.16;96612.56;5095012;28;20418;-61
2021/10/22 00:22:16;;;;;;;22.85;17.23;;;;;;;6.69;81.24;96614.28;5094865;28;20031;-63
2021/10/22 00:24:42;;;;;;;17.75;14.75;;;;;;;6.73;80.30;96612.47;5094741;28;20489;-61
2021/10/22 00:27:07;;;;;;;19.92;16.15;;;;;;;6.72;79.75;96608.16;5094763;28;20031;-61
2021/10/22 00:29:33;;;;;;;22.95;17.50;;;;;;;6.70;80.86;96610.78;5094782;28;20021;-63
2021/10/22 00:31:59;;;;;;;25.33;18.52;;;;;;;6.70;81.04;96608.19;5094731;28;20019;-62
2021/10/22 00:34:25;;;;;;;24.42;18.52;;;;;;;6.74;81.25;96603.78;5094743;28;20024;-62
2021/10/22 00:36:51;;;;;;;29.58;17.88;;;;;;;6.70;81.26;96605.59;5094656;28;20160;-61
2021/10/22 00:39:17;;;;;;;25.23;17.65;;;;;;;6.67;81.46;96603.06;5094525;28;20111;-63
2021/10/22 00:41:43;;;;;;;24.02;18.02;;;;;;;6.62;81.79;96597.94;5094529;28;20020;-63
2021/10/22 00:44:09;;;;;;;19.35;17.17;;;;;;;6.64;81.73;96603.13;5094330;28;20043;-61
2021/10/22 00:46:37;;;;;;;17.80;15.80;;;;;;;6.65;80.91;96592.69;5094411;28;20028;-60
2021/10/22 00:49:07;;;;;;;22.27;15.85;;;;;;;6.61;80.51;96590.19;5094360;28;20474;-60
2021/10/22 00:51:33;;;;;;;22.20;16.57;;;;;;;6.54;80.07;96589.47;5094420;28;20111;-61
2021/10/22 00:53:59;;;;;;;28.02;17.60;;;;;;;6.48;80.44;96589.59;5094202;28;20059;-62
2021/10/22 00:56:24;;;;;;;27.52;18.83;;;;;;;6.42;81.26;96599.22;5094265;28;20035;-62
2021/10/22 00:58:51;;;;;;;26.65;17.92;;;;;;;6.50;80.97;96598.22;5094123;28;20020;-60
2021/10/22 01:01:16;;;;;;;24.30;18.25;;;;;;;6.43;81.24;96597.47;5094023;28;20436;-62
2021/10/22 01:03:42;;;;;;;26.17;18.73;;;;;;;6.42;82.63;96596.63;5093973;28;20028;-63
2021/10/22 01:06:09;;;;;;;31.33;22.77;;;;;;;6.43;84.52;96600.06;5093941;28;20064;-61
2021/10/22 01:08:35;;;;;;;29.67;21.48;;;;;;;6.45;84.18;96593.94;5093971;28;20035;-61
2021/10/22 01:11:01;;;;;;;26.55;19.83;;;;;;;6.48;83.50;96600.00;5094044;28;20024;-62
2021/10/22 01:13:28;;;;;;;19.60;16.52;;;;;;;6.51;82.32;96602.53;5093947;28;20048;-60
2021/10/22 01:15:53;;;;;;;21.15;16.58;;;;;;;6.49;81.49;96583.50;5093840;28;20074;-61
2021/10/22 01:18:19;;;;;;;22.35;17.45;;;;;;;6.42;81.43;96585.38;5092989;28;20028;-63
2021/10/22 01:20:45;;;;;;;21.50;16.65;;;;;;;6.47;81.12;96582.69;5093734;28;20099;-61
2021/10/22 01:23:11;;;;;;;23.42;17.88;;;;;;;6.46;80.68;96587.03;5093803;28;20043;-61
2021/10/22 01:25:36;;;;;;;29.55;18.70;;;;;;;6.43;80.45;96593.16;5093535;28;20070;-62
2021/10/22 01:28:03;;;;;;;22.88;17.73;;;;;;;6.38;80.91;96599.31;5093613;28;20031;-63
2021/10/22 01:30:31;;;;;;;25.60;18.00;;;;;;;6.41;80.97;96596.66;5093706;28;20073;-63
2021/10/22 01:33:00;;;;;;;24.83;17.50;;;;;;;6.41;80.32;96594.06;5093604;28;20020;-62
2021/10/22 01:35:27;;;;;;;22.73;17.23;;;;;;;6.39;80.57;96599.31;5093517;28;20044;-63
2021/10/22 01:37:52;;;;;;;23.88;17.83;;;;;;;6.32;81.25;96588.16;5093534;28;20054;-61
2021/10/22 01:40:18;;;;;;;26.23;18.50;;;;;;;6.36;81.69;96596.75;5093402;28;20452;-62
2021/10/22 01:42:44;;;;;;;22.45;18.15;;;;;;;6.30;81.71;96596.88;5093530;28;20028;-63
2021/10/22 01:45:10;;;;;;;24.02;18.45;;;;;;;6.30;81.66;96600.31;5093438;28;20024;-61
2021/10/22 01:47:36;;;;;;;21.83;16.50;;;;;;;6.32;81.08;96593.34;5093392;28;20370;-61
2021/10/22 01:50:01;;;;;;;20.77;17.08;;;;;;;6.32;80.81;96595.09;5093288;28;20031;-61
2021/10/22 01:52:27;;;;;;;22.23;16.73;;;;;;;6.34;80.93;96597.66;5093318;28;20082;-61
2021/10/22 01:54:52;;;;;;;21.25;15.65;;;;;;;6.32;79.25;96595.97;5093338;28;20051;-61
2021/10/22 01:57:18;;;;;;;27.33;17.10;;;;;;;6.18;79.71;96600.56;5093315;28;20035;-62
2021/10/22 01:59:46;;;;;;;21.88;17.30;;;;;;;6.16;80.67;96605.81;5093141;28;20039;-61
2021/10/22 02:02:13;;;;;;;27.35;18.52;;;;;;;6.21;81.04;96597.91;5093206;28;20028;-61
2021/10/22 02:04:38;;;;;;;23.33;18.77;;;;;;;6.21;81.17;96600.53;5092911;28;20402;-61
2021/10/22 02:07:04;;;;;;;23.05;18.20;;;;;;;6.23;81.32;96600.50;5093269;28;20028;-63
2021/10/22 02:09:29;;;;;;;25.08;17.05;;;;;;;6.28;80.66;96609.03;5093165;28;20381;-60
2021/10/22 02:11:55;;;;;;;21.77;16.35;;;;;;;6.29;80.32;96609.00;5093034;28;20058;-63
2021/10/22 02:14:20;;;;;;;17.85;14.88;;;;;;;6.27;79.40;96612.53;5092998;28;20500;-63
2021/10/22 02:16:47;;;;;;;22.05;15.85;;;;;;;6.22;79.16;96612.63;5093131;28;20021;-61
2021/10/22 02:19:13;;;;;;;24.45;17.42;;;;;;;6.21;79.77;96618.72;5093094;28;20099;-61
2021/10/22 02:21:39;;;;;;;22.92;18.13;;;;;;;6.23;80.85;96618.69;5093035;28;20115;-61
2021/10/22 02:24:05;;;;;;;26.25;19.60;;;;;;;6.23;81.24;96622.09;5093035;28;20062;-61
2021/10/22 02:26:31;;;;;;;24.05;18.55;;;;;;;6.22;81.27;96623.00;5093048;28;20031;-62
2021/10/22 02:28:57;;;;;;;25.40;19.90;;;;;;;6.23;81.25;96626.47;5094039;28;20116;-63
2021/10/22 02:31:23;;;;;;;19.88;16.08;;;;;;;6.25;80.69;96635.94;5097083;28;20095;-62
2021/10/22 02:33:49;;;;;;;22.77;18.02;;;;;;;6.25;80.44;96628.16;5097038;28;20030;-61
2021/10/22 02:36:14;;;;;;;18.20;14.52;;;;;;;6.27;80.26;96641.09;5096819;28;20024;-63
2021/10/22 02:38:40;;;;;;;26.60;16.33;;;;;;;6.28;79.98;96640.22;5096900;28;20084;-63
2021/10/22 02:41:07;;;;;;;20.38;15.60;;;;;;;6.29;79.93;96637.59;5096869;28;20020;-61
2021/10/22 02:43:32;;;;;;;22.88;16.92;;;;;;;6.24;80.06;96638.56;5096810;28;20543;-62
2021/10/22 02:45:58;;;;;;;19.55;16.02;;;;;;;6.21;79.89;96636.88;5096665;28;20036;-62
2021/10/22 02:48:23;;;;;;;22.45;16.60;;;;;;;6.12;80.21;96647.44;5096613;28;20024;-61
2021/10/22 02:50:49;;;;;;;23.27;17.95;;;;;;;6.05;81.00;96638.91;5096668;28;20023;-62
2021/10/22 02:53:15;;;;;;;22.05;17.75;;;;;;;6.09;81.50;96645.78;5096599;28;20065;-63
2021/10/22 02:55:40;;;;;;;22.42;15.50;;;;;;;6.09;81.19;96645.78;5096607;28;20028;-63
2021/10/22 02:58:06;;;;;;;22.73;16.17;;;;;;;6.10;80.43;96657.00;5096701;28;20020;-61
2021/10/22 03:00:32;;;;;;;21.17;16.25;;;;;;;6.12;80.83;96652.63;5096503;28;20455;-62
2021/10/22 03:02:57;;;;;;;21.52;15.63;;;;;;;6.06;80.63;96648.41;5096351;28;20024;-61
2021/10/22 03:05:23;;;;;;;21.25;16.88;;;;;;;6.05;81.00;96659.69;5096093;28;20044;-62
2021/10/22 03:07:49;;;;;;;25.13;18.63;;;;;;;6.01;81.44;96656.25;5096376;28;20028;-62
2021/10/22 03:10:15;;;;;;;26.45;18.85;;;;;;;6.09;81.60;96660.47;5096221;28;20493;-63
2021/10/22 03:12:40;;;;;;;21.42;17.92;;;;;;;6.10;80.91;96667.38;5096286;28;20103;-63
2021/10/22 03:15:08;;;;;;;21.42;15.85;;;;;;;6.10;80.78;96665.66;5096381;28;20099;-60
2021/10/22 03:17:33;;;;;;;19.60;14.95;;;;;;;6.12;79.64;96682.06;5096057;28;20382;-63
2021/10/22 03:19:59;;;;;;;18.60;15.52;;;;;;;6.07;79.31;96681.28;5096064;28;20020;-62
2021/10/22 03:22:25;;;;;;;27.17;16.10;;;;;;;6.03;79.81;96679.59;5096106;28;20102;-62
2021/10/22 03:24:51;;;;;;;19.65;14.77;;;;;;;6.02;79.62;96670.94;5095904;28;20032;-63
2021/10/22 03:27:19;;;;;;;32.25;27.13;;;;;;;5.96;79.72;96672.81;5096043;28;20540;-62
2021/10/22 03:29:44;;;;;;;37.92;24.20;;;;;;;5.80;81.42;96673.94;5095943;28;20065;-61
2021/10/22 03:32:10;;;;;;;31.98;18.40;;;;;;;5.85;82.97;96667.78;5096186;28;20381;-60
2021/10/22 03:34:35;;;;;;;18.90;15.05;;;;;;;5.78;82.01;96674.84;5095879;28;20031;-61
2021/10/22 03:37:01;;;;;;;22.23;16.58;;;;;;;5.77;81.98;96676.56;5095766;28;20031;-61
2021/10/22 03:39:27;;;;;;;17.27;14.40;;;;;;;5.80;81.86;96673.94;5095750;28;20028;-61
2021/10/22 03:41:53;;;;;;;18.00;14.45;;;;;;;5.69;80.95;96655.94;5094730;28;20040;-61
2021/10/22 03:44:19;;;;;;;18.33;15.00;;;;;;;5.83;80.50;96670.41;5095603;28;20024;-63
2021/10/22 03:46:45;;;;;;;21.83;16.23;;;;;;;5.88;80.51;96678.13;5095577;28;20024;-61
2021/10/22 03:49:10;;;;;;;24.98;16.15;;;;;;;5.91;80.42;96684.13;5095548;28;20020;-61
2021/10/22 03:51:36;;;;;;;23.58;17.08;;;;;;;5.91;80.32;96688.47;5095471;28;20048;-61
2021/10/22 03:54:02;;;;;;;20.38;15.60;;;;;;;5.93;79.80;96681.50;5095500;28;20397;-63
2021/10/22 03:56:27;;;;;;;23.10;16.63;;;;;;;5.94;79.36;96680.63;5095442;28;20055;-63
2021/10/22 03:58:53;;;;;;;20.25;16.02;;;;;;;5.88;79.93;96680.72;5095504;28;20106;-61
2021/10/22 04:01:19;;;;;;;20.10;14.80;;;;;;;5.85;79.70;96673.84;5095207;28;20081;-61
2021/10/22 04:03:44;;;;;;;17.85;14.95;;;;;;;5.84;79.59;96682.50;5095367;28;20024;-60
2021/10/22 04:06:10;;;;;;;16.15;13.63;;;;;;;5.78;79.50;96667.88;5095188;28;20490;-62
2021/10/22 04:08:36;;;;;;;23.80;15.88;;;;;;;5.83;80.00;96675.59;5095215;28;20036;-63
2021/10/22 04:11:02;;;;;;;23.67;15.48;;;;;;;5.84;80.11;96674.72;5095286;28;20028;-62
2021/10/22 04:13:27;;;;;;;21.10;15.00;;;;;;;5.83;79.77;96673.00;5095056;28;20478;-63
2021/10/22 04:15:53;;;;;;;22.08;15.85;;;;;;;5.86;79.81;96672.09;5095011;28;20172;-63
2021/10/22 04:18:19;;;;;;;19.50;14.23;;;;;;;5.86;80.22;96666.91;5094984;28;20086;-62
2021/10/22 04:20:45;;;;;;;24.90;17.52;;;;;;;5.82;80.70;96671.31;5094972;28;20020;-61
2021/10/22 04:23:10;;;;;;;22.05;18.17;;;;;;;5.85;80.83;96675.56;5094927;28;20036;-62
2021/10/22 04:25:36;;;;;;;22.85;17.00;;;;;;;5.85;80.59;96675.56;5094700;28;20035;-62
2021/10/22 04:28:04;;;;;;;24.08;17.73;;;;;;;5.85;80.52;96671.25;5094791;28;20012;-62
2021/10/22 04:30:30;;;;;;;22.50;16.38;;;;;;;5.85;80.57;96666.06;5076597;28;20390;-61
2021/10/22 04:32:56;;;;;;;27.20;16.70;;;;;;;5.86;79.78;96675.56;5094731;28;20093;-62
2021/10/22 04:35:21;;;;;;;26.77;16.38;;;;;;;5.86;80.77;96679.88;5094623;28;20024;-61
2021/10/22 04:40:32;;;;;;;17.95;14.70;;;;;;;5.87;80.37;96684.22;5094670;28;20028;-61
2021/10/22 04:43:03;;;;;;;19.27;14.88;;;;;;;5.90;80.25;96687.59;5094604;28;20031;-63
2021/10/22 04:45:30;;;;;;;22.48;16.17;;;;;;;5.82;80.42;96681.69;5094474;28;20069;-61
2021/10/22 04:47:56;;;;;;;24.23;16.42;;;;;;;5.79;80.81;96686.94;5094304;28;20105;-63
2021/10/22 04:50:22;;;;;;;25.15;16.80;;;;;;;5.76;81.45;96690.44;5094399;28;20024;-63
2021/10/22 04:52:54;;;;;;;23.00;16.15;;;;;;;5.76;81.25;96689.56;5094386;28;20458;-61
2021/10/22 04:55:21;;;;;;;20.42;15.55;;;;;;;5.78;81.28;96695.63;5094327;28;20032;-61
2021/10/22 04:57:47;;;;;;;22.88;15.38;;;;;;;5.81;81.30;96701.59;5094271;28;20024;-61
2021/10/22 05:00:13;;;;;;;15.38;12.77;;;;;;;5.85;80.52;96696.34;5094228;28;20020;-62
2021/10/22 05:02:39;;;;;;;20.65;16.02;;;;;;;5.80;80.84;96689.50;5094078;28;20036;-61
2021/10/22 05:05:05;;;;;;;21.52;16.50;;;;;;;5.76;81.42;96706.03;5093829;28;20093;-61
2021/10/22 05:07:31;;;;;;;22.25;17.65;;;;;;;5.83;81.43;96704.16;5094054;28;20083;-61
2021/10/22 05:09:57;;;;;;;22.70;17.50;;;;;;;5.92;80.90;96716.13;5094070;28;20047;-62
2021/10/22 05:12:24;;;;;;;17.95;14.75;;;;;;;5.97;80.86;96708.28;5093843;28;20120;-62
2021/10/22 05:14:50;;;;;;;21.00;16.15;;;;;;;5.88;81.19;96712.75;5094019;28;20020;-61
2021/10/22 05:17:16;;;;;;;18.17;14.63;;;;;;;5.94;81.34;96720.41;5093803;28;20030;-61
2021/10/22 05:19:42;;;;;;;20.20;15.70;;;;;;;6.23;82.35;96720.00;5093998;28;20111;-62
2021/10/22 05:22:08;;;;;;;12.75;10.50;;;;;;;7.19;78.18;96722.44;5075620;28;20108;-62
2021/10/22 05:24:34;;;;;;;16.25;10.02;;;;;;;8.32;74.67;96718.09;5093645;28;20114;-61
2021/10/22 05:27:00;;;;;;;12.00;10.05;;;;;;;9.56;70.38;96718.09;5093635;28;20048;-63
2021/10/22 05:29:25;;;;;;;12.48;8.82;;;;;;;10.83;66.49;96715.66;5093599;28;20012;-61
2021/10/22 05:31:51;;;;;;;10.80;9.27;;;;;;;11.72;64.63;96722.84;5093693;28;20023;-61
2021/10/22 05:34:20;;;;;;;9.68;8.48;;;;;;;12.54;61.90;96728.28;5093799;28;20020;-63
2021/10/22 05:36:46;;;;;;;9.82;8.82;;;;;;;13.57;59.32;96733.41;5093540;28;20055;-62
2021/10/22 05:39:14;;;;;;;11.00;8.65;;;;;;;14.53;57.47;96734.00;5093535;28;20027;-64
2021/10/22 05:41:40;;;;;;;7.60;6.80;;;;;;;15.57;53.05;96734.78;5093528;28;20035;-60
2021/10/22 05:44:06;;;;;;;9.75;7.07;;;;;;;16.54;48.84;96739.91;5093437;28;20020;-61
2021/10/22 05:46:32;;;;;;;7.78;7.00;;;;;;;17.25;46.86;96736.63;5093400;28;20020;-63
2021/10/22 05:48:57;;;;;;;7.80;6.57;;;;;;;17.94;46.26;96744.59;5093380;28;20039;-61
2021/10/22 05:51:23;;;;;;;9.77;7.15;;;;;;;18.80;44.52;96740.81;5093440;28;20103;-62
2021/10/22 05:53:51;;;;;;;8.15;7.20;;;;;;;19.48;43.61;96739.75;5093278;28;20028;-61
2021/10/22 05:56:18;;;;;;;8.52;6.80;;;;;;;20.06;42.03;96745.31;5093216;28;20034;-63
2021/10/22 05:58:45;;;;;;;7.57;6.88;;;;;;;20.51;41.34;96759.75;5093228;28;20028;-62
2021/10/22 06:01:10;;;;;;;7.55;6.75;;;;;;;21.08;39.70;96764.38;5093204;28;20102;-60
2021/10/22 06:03:36;;;;;;;7.03;6.40;;;;;;;21.45;39.51;96768.63;5092764;28;20115;-61
2021/10/22 06:06:01;;;;;;;9.55;7.05;;;;;;;21.91;38.72;96768.63;5092809;28;20509;-64
2021/10/22 06:08:27;;;;;;;7.65;6.65;;;;;;;21.87;39.27;96768.03;5093142;28;20036;-63
2021/10/22 06:10:53;;;;;;;8.15;7.25;;;;;;;22.40;38.92;96770.91;5093269;28;20089;-61
2021/10/22 06:13:19;;;;;;;7.70;6.93;;;;;;;23.01;37.52;96766.75;5093001;28;20088;-62
2021/10/22 06:15:45;;;;;;;8.10;6.93;;;;;;;23.39;36.33;96769.75;5092929;28;20474;-61
2021/10/22 06:18:14;;;;;;;7.32;6.63;;;;;;;23.87;35.39;96774.56;5093016;28;20026;-62
2021/10/22 06:20:53;;;;;;;7.10;6.40;;;;;;;24.44;34.32;96777.50;5092960;28;20024;-62
2021/10/22 06:26:02;;;;;;;7.05;6.45;;;;;;;25.34;32.93;96779.09;5092979;28;20166;-60
2021/10/22 06:28:28;;;;;;;7.97;7.18;;;;;;;25.66;32.64;96786.88;5093016;28;20099;-63
2021/10/22 06:30:54;;;;;;;8.45;7.57;;;;;;;25.98;32.36;96782.94;5093018;28;20032;-61
2021/10/22 06:33:20;;;;;;;10.15;7.32;;;;;;;26.38;32.05;96783.53;5093130;28;20467;-62
2021/10/22 06:35:49;;;;;;;8.02;7.22;;;;;;;26.55;31.48;96783.69;5092859;28;20081;-64
2021/10/22 06:38:15;;;;;;;8.02;7.20;;;;;;;26.78;30.73;96785.91;5092709;28;20103;-63
2021/10/22 06:40:41;;;;;;;8.60;7.70;;;;;;;27.16;30.59;96791.91;5092776;28;20103;-60
2021/10/22 06:43:07;;;;;;;8.30;7.50;;;;;;;27.60;29.82;96784.78;5092758;28;20100;-61
2021/10/22 06:45:33;;;;;;;9.52;7.15;;;;;;;27.82;29.95;96790.59;5092675;28;20065;-63
2021/10/22 06:47:59;;;;;;;8.75;7.10;;;;;;;28.32;29.40;96791.63;5092947;28;20675;-64
2021/10/22 06:50:25;;;;;;;8.60;7.70;;;;;;;28.52;29.30;96785.94;5092526;28;20067;-62
2021/10/22 06:52:54;;;;;;;7.75;6.93;;;;;;;28.97;28.99;96789.19;5092746;28;20055;-62
2021/10/22 06:55:21;;;;;;;9.15;6.82;;;;;;;28.94;28.50;96791.34;5092726;28;20098;-64
2021/10/22 06:57:47;;;;;;;9.07;6.95;;;;;;;29.08;28.39;96795.22;5092766;28;20127;-63
2021/10/22 07:00:13;;;;;;;7.20;6.60;;;;;;;29.26;28.08;96797.72;5092731;28;20469;-61
2021/10/22 07:02:52;;;;;;;8.45;7.43;;;;;;;29.67;28.08;96804.06;5092589;28;20432;-62
2021/10/22 07:08:04;;;;;;;9.55;6.82;;;;;;;30.48;26.67;96793.06;5092859;28;20108;-63
2021/10/22 07:10:32;;;;;;;77.40;15.05;;;;;;;30.63;25.99;96794.97;5092737;28;20354;-62
2021/10/22 07:13:01;;;;;;;9.15;7.18;;;;;;;30.83;26.43;96791.81;5092595;28;20529;-62
2021/10/22 07:15:28;;;;;;;8.40;7.10;;;;;;;31.24;25.71;96793.31;5092766;28;20530;-63
2021/10/22 07:17:59;;;;;;;8.15;7.35;;;;;;;31.59;25.18;96790.94;5096203;28;20513;-63
2021/10/22 07:20:26;;;;;;;7.20;6.60;;;;;;;31.15;26.08;96793.38;5096080;28;20020;-63
2021/10/22 07:22:54;;;;;;;10.57;7.07;;;;;;;31.30;25.66;96799.84;5096130;28;20028;-62
2021/10/22 07:25:22;;;;;;;7.68;6.97;;;;;;;31.64;25.62;96793.91;5096043;28;20032;-60
2021/10/22 07:27:50;;;;;;;7.78;7.00;;;;;;;31.63;25.29;96797.63;5095982;28;20024;-64
2021/10/22 07:30:16;;;;;;;8.60;6.80;;;;;;;31.64;25.52;96804.72;5095880;28;20367;-61
2021/10/22 07:32:42;;;;;;;8.20;7.30;;;;;;;31.54;25.89;96803.34;5095824;28;20020;-63
2021/10/22 07:35:10;;;;;;;8.23;7.40;;;;;;;31.03;26.32;96802.94;5096005;28;20024;-61
2021/10/22 07:37:36;;;;;;;13.88;7.93;;;;;;;30.45;27.05;96809.59;5095974;28;20028;-62
2021/10/22 07:40:03;;;;;;;9.57;8.05;;;;;;;29.77;28.77;96813.59;5095896;28;20028;-64
2021/10/22 07:42:29;;;;;;;9.25;8.35;;;;;;;29.30;29.84;96817.06;5095675;28;20024;-65
2021/10/22 07:44:59;;;;;;;8.82;7.97;;;;;;;28.79;29.75;96810.84;5095564;28;20470;-61
2021/10/22 07:47:29;;;;;;;9.10;8.20;;;;;;;28.16;30.88;96796.91;5095598;28;20035;-62
2021/10/22 07:49:56;;;;;;;8.75;7.85;;;;;;;27.47;31.68;96799.47;5095577;28;20031;-62
2021/10/22 07:52:26;;;;;;;7.90;7.15;;;;;;;26.92;32.95;96805.97;5095557;28;20024;-61
2021/10/22 07:54:52;;;;;;;8.63;7.78;;;;;;;26.66;32.95;96807.59;5095453;28;20020;-63
2021/10/22 07:57:19;;;;;;;13.23;8.05;;;;;;;26.01;35.10;96801.38;5095386;28;20020;-61
2021/10/22 07:59:45;;;;;;;10.98;7.45;;;;;;;25.34;36.52;96803.19;5095367;28;20482;-59
2021/10/22 08:02:12;;;;;;;7.85;7.15;;;;;;;24.61;36.96;96794.66;5095166;28;20077;-62
2021/10/22 08:04:44;;;;;;;8.25;7.45;;;;;;;24.26;38.35;96795.22;5076931;28;20059;-60
2021/10/22 08:07:09;;;;;;;9.55;7.50;;;;;;;24.01;38.46;96798.22;5095190;28;20020;-63
2021/10/22 08:09:36;;;;;;;10.13;7.95;;;;;;;23.73;39.39;96790.84;5095316;28;20027;-61
2021/10/22 08:12:02;;;;;;;9.10;8.20;;;;;;;23.37;41.23;96787.75;5095108;28;20024;-59
2021/10/22 08:14:28;;;;;;;9.80;8.75;;;;;;;23.15;41.67;96786.88;5095135;28;20020;-64
2021/10/22 08:16:55;;;;;;;9.30;8.13;;;;;;;23.06;41.74;96782.34;5094273;28;20040;-59
2021/10/22 08:19:21;;;;;;;11.30;8.88;;;;;;;22.79;42.63;96784.53;5094899;28;20032;-61
2021/10/22 08:24:12;;;;;;;11.05;8.48;;;;;;;22.36;43.66;96785.47;5094896;28;20085;-62
2021/10/22 08:26:38;;;;;;;11.07;8.65;;;;;;;22.19;45.13;96782.34;5094567;28;20032;-61
2021/10/22 08:29:04;;;;;;;11.45;8.25;;;;;;;22.06;45.05;96782.50;5094727;28;20023;-64
2021/10/22 08:31:30;;;;;;;9.48;8.57;;;;;;;21.91;46.31;96789.94;5094830;28;20071;-62
2021/10/22 08:33:56;;;;;;;10.68;9.38;;;;;;;21.87;45.70;96784.00;5094660;28;20096;-62
2021/10/22 08:36:22;;;;;;;10.95;9.75;;;;;;;21.80;45.96;96780.13;5094726;28;20024;-62
2021/10/22 08:38:47;;;;;;;8.77;7.88;;;;;;;21.62;45.81;96787.75;5094736;28;20024;-62
2021/10/22 08:41:16;;;;;;;10.60;8.93;;;;;;;21.73;45.62;96782.41;5094537;28;20023;-59
2021/10/22 08:43:43;;;;;;;11.80;7.90;;;;;;;21.63;45.37;96784.09;5094414;28;20035;-61
2021/10/22 08:46:13;;;;;;;11.65;8.45;;;;;;;21.53;44.47;96787.50;5094440;28;20028;-61
2021/10/22 08:48:42;;;;;;;11.50;8.75;;;;;;;21.61;43.63;96784.22;5094488;28;20020;-62
2021/10/22 08:51:08;;;;;;;7.88;7.13;;;;;;;21.69;41.81;96778.28;5094392;28;20020;-62
2021/10/22 08:53:35;;;;;;;8.88;7.97;;;;;;;21.65;44.08;96780.38;5094540;28;20043;-61
2021/10/22 08:56:05;;;;;;;8.10;7.30;;;;;;;21.65;44.55;96783.03;5094213;28;20035;-58
2021/10/22 08:58:31;;;;;;;7.97;6.97;;;;;;;21.30;43.28;96787.50;5094174;28;20466;-60
2021/10/22 09:00:57;;;;;;;9.40;7.63;;;;;;;21.21;43.76;96789.06;5094212;28;20074;-63
2021/10/22 09:03:23;;;;;;;8.52;7.25;;;;;;;21.45;45.17;96776.63;5094155;28;20366;-63
2021/10/22 09:05:57;;;;;;;8.95;8.05;;;;;;;21.65;43.18;96776.84;5093841;28;20044;-60
2021/10/22 09:08:33;;;;;;;7.32;6.63;;;;;;;21.76;43.59;96771.53;5094022;28;20052;-61
2021/10/22 09:11:03;;;;;;;8.13;7.32;;;;;;;21.69;42.71;96770.31;5094012;28;20438;-60
2021/10/22 09:13:36;;;;;;;8.23;7.43;;;;;;;21.78;42.99;96771.41;5094092;28;20016;-60
2021/10/22 09:16:22;;;;;;;8.50;6.85;;;;;;;21.71;42.36;96771.03;5093955;28;20024;-60
2021/10/22 09:18:50;;;;;;;8.75;7.00;;;;;;;21.59;43.27;96775.53;5093892;28;20020;-61
2021/10/22 09:21:25;;;;;;;7.80;7.00;;;;;;;21.59;43.18;96775.53;5093888;28;20020;-63
2021/10/22 09:23:53;;;;;;;9.35;7.03;;;;;;;21.46;44.18;96776.50;5093861;28;20055;-61
2021/10/22 09:26:28;;;;;;;8.95;7.32;;;;;;;21.35;43.54;96781.81;5093745;28;20108;-60
2021/10/22 09:28:55;;;;;;;9.98;6.85;;;;;;;21.36;44.01;96778.19;5093690;28;20028;-62
2021/10/22 09:31:22;;;;;;;10.50;8.00;;;;;;;21.35;46.09;96784.50;5093627;28;20061;-62
2021/10/22 09:33:59;;;;;;;7.95;7.25;;;;;;;21.28;45.00;96781.44;5093584;28;20027;-63
2021/10/22 09:36:43;;;;;;;8.77;7.50;;;;;;;21.26;44.77;96786.06;5093564;28;20023;-63
2021/10/22 09:39:19;;;;;;;8.10;7.30;;;;;;;21.28;44.92;96785.94;5092985;28;20027;-62
2021/10/22 09:42:09;;;;;;;7.97;7.28;;;;;;;21.37;45.40;96787.03;5093607;28;20374;-60
2021/10/22 09:44:38;;;;;;;10.15;7.72;;;;;;;21.42;45.04;96784.84;5093327;28;20035;-63
2021/10/22 09:47:04;;;;;;;8.13;7.30;;;;;;;21.48;45.13;96779.03;5093369;28;20089;-62
2021/10/22 09:49:32;;;;;;;10.43;7.35;;;;;;;21.43;43.81;96789.22;5093373;28;20398;-60
2021/10/22 09:52:00;;;;;;;8.23;7.30;;;;;;;21.41;44.48;96780.50;5093655;28;20072;-62
2021/10/22 09:54:33;;;;;;;11.77;7.40;;;;;;;21.46;43.98;96778.31;5093264;28;20467;-59
2021/10/22 09:57:04;;;;;;;7.90;6.30;;;;;;;21.27;44.63;96779.75;5093272;28;20470;-62
2021/10/22 09:59:32;;;;;;;8.43;7.57;;;;;;;21.27;44.09;96777.09;5093157;28;20031;-63
2021/10/22 10:01:59;;;;;;;7.78;6.38;;;;;;;21.26;45.16;96771.91;5093252;28;20016;-63
2021/10/22 10:04:27;;;;;;;10.50;6.85;;;;;;;21.18;44.64;96775.16;5092922;28;20078;-62
2021/10/22 10:06:58;;;;;;;9.65;7.10;;;;;;;21.14;44.74;96774.56;5093176;28;20024;-60
2021/10/22 10:09:26;;;;;;;;;;;;;;;21.11;45.23;96766.81;5093644;28;20028;-62
2021/10/22 10:11:54;;;;;;;7.97;7.18;;;;;;;21.12;44.36;96764.97;5093016;28;19919;-62
2021/10/22 10:14:25;;;;;;;7.35;6.47;;;;;;;21.00;44.87;96762.31;5093098;28;20440;-61
2021/10/22 10:16:51;;;;;;;7.80;6.47;;;;;;;21.18;45.79;96770.69;5093115;28;20466;-62
2021/10/22 10:19:32;;;;;;;7.55;6.70;;;;;;;21.16;44.05;96766.47;5075114;28;20050;-60
2021/10/22 10:22:00;;;;;;;8.95;7.03;;;;;;;21.17;44.33;96768.16;5092982;28;20474;-61
2021/10/22 10:25:01;;;;;;;9.40;6.38;;;;;;;21.13;44.45;96761.38;5092830;28;20027;-63
2021/10/22 10:27:26;;;;;;;;;;;;;;;21.15;44.80;96765.59;5093306;28;20031;-62
2021/10/22 10:30:00;;;;;;;8.27;7.47;;;;;;;21.16;44.67;96758.47;5093053;28;20010;-61
2021/10/22 10:32:29;;;;;;;10.35;7.47;;;;;;;21.13;46.03;96754.22;5092871;28;20043;-63
2021/10/22 10:34:59;;;;;;;8.40;7.15;;;;;;;20.98;46.20;96752.78;5092870;28;20024;-59
2021/10/22 10:37:33;;;;;;;8.77;7.05;;;;;;;21.03;46.18;96753.25;5092923;28;20373;-60
2021/10/22 10:40:01;;;;;;;8.00;7.20;;;;;;;20.99;44.75;96751.81;5092907;28;20066;-60
2021/10/22 10:42:42;;;;;;;9.70;7.30;;;;;;;20.95;45.05;96745.91;5092905;28;20031;-61
2021/10/22 10:45:14;;;;;;;8.82;7.32;;;;;;;21.06;44.26;96753.00;5092713;28;20039;-60
2021/10/22 10:47:46;;;;;;;7.80;7.00;;;;;;;21.10;46.16;96754.47;5074751;28;20028;-63
2021/10/22 10:50:14;;;;;;;8.18;7.38;;;;;;;21.01;45.02;96736.59;5094289;28;20107;-62
2021/10/22 10:52:40;;;;;;;9.98;7.60;;;;;;;20.83;44.79;96739.69;5096690;28;20537;-62
2021/10/22 10:55:15;;;;;;;11.38;7.30;;;;;;;20.88;45.97;96744.63;5096728;28;20036;-62
2021/10/22 10:57:52;;;;;;;8.60;7.40;;;;;;;20.94;45.21;96739.72;5096556;28;20035;-63
2021/10/22 11:00:21;;;;;;;7.72;6.45;;;;;;;20.90;44.29;96732.94;5096509;28;20028;-60
2021/10/22 11:03:02;;;;;;;8.77;6.75;;;;;;;20.97;44.35;96728.00;5096489;28;20016;-61
2021/10/22 11:05:53;;;;;;;7.70;6.57;;;;;;;20.97;43.61;96725.34;5096147;28;20051;-60
2021/10/22 11:08:31;;;;;;;8.20;7.15;;;;;;;20.99;43.32;96725.22;5096489;28;20036;-59
2021/10/22 11:11:01;;;;;;;7.15;6.03;;;;;;;20.84;43.50;96720.94;5096484;28;20039;-62
2021/10/22 11:13:43;;;;;;;;;;;;;;;20.83;43.51;96718.41;5078556;28;20432;-59
2021/10/22 11:16:25;;;;;;;7.40;6.53;;;;;;;20.76;44.03;96719.81;5096287;28;20404;-60
2021/10/22 11:19:12;;;;;;;7.38;6.53;;;;;;;20.79;44.29;96708.97;5096199;28;20069;-62
2021/10/22 11:21:54;;;;;;;7.43;6.40;;;;;;;20.80;43.74;96710.66;5096206;28;20024;-64
2021/10/22 11:24:27;;;;;;;7.68;6.93;;;;;;;20.82;44.39;96703.41;5095984;28;20055;-60
2021/10/22 11:26:59;;;;;;;7.47;6.47;;;;;;;20.81;44.08;96702.59;5096138;28;20016;-64
2021/10/22 11:29:25;;;;;;;7.60;6.68;;;;;;;20.82;43.91;96704.28;5096060;28;20047;-61
2021/10/22 11:31:57;;;;;;;7.18;6.18;;;;;;;20.81;43.04;96699.06;5096009;28;20093;-62
2021/10/22 11:34:29;;;;;;;6.63;6.03;;;;;;;20.78;44.30;96700.16;5095943;28;20036;-62
2021/10/22 11:37:01;;;;;;;7.65;6.45;;;;;;;20.78;44.54;96700.16;5095945;28;20024;-59
2021/10/22 11:39:33;;;;;;;11.05;6.32;;;;;;;20.82;44.47;96692.78;5095939;28;20036;-61
2021/10/22 11:42:12;;;;;;;6.47;5.88;;;;;;;20.91;43.16;96691.25;5095807;28;20024;-63